Weather History for Golovin, AK

Change the Weather History Date:

Wednesday, March 6, 2013

  Actual Average Record
Temperature  
Mean Temperature 28 °F -  
Max Temperature 33 °F - - ()
Min Temperature 23 °F - - ()
Degree Days  
Heating Degree Days 37    
Moisture  
Dew Point 26 °F    
Average Humidity 94    
Maximum Humidity 100    
Minimum Humidity 86    
Precipitation  
Precipitation 0.36 in - - ()
Sea Level Pressure  
Sea Level Pressure 29.70 in    
Wind  
Wind Speed 15 mph (SE)    
Max Wind Speed 25 mph    
Max Gust Speed 31 mph    
Visibility 6 miles    
Events      
T = Trace of Precipitation, MM = Missing Value Source: NWS Daily Summary

Daily Weather History Graph

Daily Weather History Graph

Search for Another Location

Airport:

Trip Planner

Search our weather history database for the weather conditions in past years. The results will help you decide how hot, cold, wet, or windy it might be!

Date:

Astronomy

Mar. 06, 2013 Rise Set
Actual Time 8:41 AM AKST 7:26 PM AKST
Civil Twilight 7:52 AM AKST 8:15 PM AKST
Nautical Twilight 6:56 AM AKST 9:11 PM AKST
Astronomical Twilight 5:57 AM AKST 10:11 PM AKST
Moon 6:42 AM AKST (3/6) 12:43 PM AKST (3/6)
Length of Visible Light 12h 22m
Length of Day
10h 45m
Waning Crescent, 28% of the Moon is Illuminated
Mar 6
Waning Crescent
Mar 11
New
Mar 19
First Quarter
Mar 27
Full
Apr 2
Last Quarter

Hourly Weather History & Observations

Time (AKST) Temp. Windchill Dew Point Humidity Pressure Visibility Wind Dir Wind Speed Gust Speed Precip Events Conditions
12:16 AM 33.8 °F 21.3 °F 30.2 °F 87% 29.67 in 3.0 mi SE 24.2 mph 29.9 mph 0.01 in   Overcast
12:36 AM 33.8 °F 21.9 °F 30.2 °F 87% 29.67 in 3.0 mi SE 21.9 mph 28.8 mph 0.01 in   Overcast
12:56 AM 32.0 °F 19.5 °F 30.2 °F 93% 29.67 in 3.0 mi SE 21.9 mph 27.6 mph 0.01 in   Overcast
1:16 AM 33.8 °F 21.6 °F 30.2 °F 87% 29.66 in 3.0 mi SE 23.0 mph 27.6 mph N/A   Overcast
1:36 AM 32.0 °F 18.6 °F 30.2 °F 93% 29.65 in 3.0 mi SE 25.3 mph 29.9 mph N/A   Overcast
1:56 AM 32.0 °F 18.9 °F 30.2 °F 93% 29.65 in 3.0 mi SE 24.2 mph 31.1 mph N/A   Overcast
2:16 AM 32.0 °F 18.6 °F 30.2 °F 93% 29.64 in 2.5 mi SE 25.3 mph 31.1 mph N/A   Overcast
2:36 AM 32.0 °F 18.9 °F 30.2 °F 93% 29.64 in 3.0 mi SE 24.2 mph 29.9 mph N/A   Overcast
2:56 AM 32.0 °F 19.5 °F 30.2 °F 93% 29.64 in 3.0 mi SE 21.9 mph 27.6 mph N/A   Overcast
3:16 AM 32.0 °F 19.5 °F 30.2 °F 93% 29.64 in 3.0 mi SE 21.9 mph 25.3 mph N/A   Overcast
3:36 AM 32.0 °F 19.5 °F 30.2 °F 93% 29.64 in 2.0 mi SE 21.9 mph - N/A   Overcast
3:56 AM 32.0 °F 20.1 °F 30.2 °F 93% 29.64 in 2.0 mi SE 19.6 mph 25.3 mph N/A   Overcast
4:16 AM 32.0 °F 19.5 °F 30.2 °F 93% 29.64 in 2.0 mi SE 21.9 mph 26.5 mph N/A   Overcast
4:36 AM 32.0 °F 20.1 °F 30.2 °F 93% 29.64 in 2.5 mi SSE 19.6 mph - N/A   Overcast
4:56 AM 30.2 °F 17.4 °F 30.2 °F 100% 29.64 in 3.0 mi SSE 20.7 mph 25.3 mph N/A   Overcast
5:16 AM 30.2 °F 18.5 °F 30.2 °F 100% 29.64 in 5.0 mi SSE 17.3 mph - N/A   Overcast
5:36 AM 30.2 °F 18.9 °F 28.4 °F 93% 29.65 in 10.0 mi South 16.1 mph - N/A   Overcast
5:56 AM 30.2 °F 18.9 °F 28.4 °F 93% 29.65 in 5.0 mi South 16.1 mph - N/A   Overcast
6:16 AM 28.4 °F 17.0 °F 26.6 °F 93% 29.66 in 2.5 mi South 15.0 mph - N/A   Overcast
6:36 AM 28.4 °F 18.5 °F 28.4 °F 100% 29.67 in 10.0 mi South 11.5 mph - N/A   Overcast
6:56 AM 28.4 °F 19.7 °F 26.6 °F 93% 29.68 in 10.0 mi South 9.2 mph - N/A   Overcast
7:16 AM 26.6 °F 17.5 °F 24.8 °F 93% 29.68 in 10.0 mi South 9.2 mph - 0.03 in   Scattered Clouds
7:36 AM 24.8 °F 16.1 °F 23.0 °F 93% 29.68 in 10.0 mi South 8.1 mph - 0.03 in   Scattered Clouds
7:56 AM 24.8 °F 20.5 °F 24.8 °F 100% 29.69 in 10.0 mi South 3.5 mph - 0.03 in   Mostly Cloudy
8:16 AM 24.8 °F - 24.8 °F 100% 29.70 in 10.0 mi Calm Calm - N/A   Overcast
8:36 AM 26.6 °F 21.2 °F 24.8 °F 93% 29.70 in 10.0 mi South 4.6 mph - 0.03 in   Overcast
8:56 AM 24.8 °F 13.4 °F 23.0 °F 93% 29.70 in 0.5 mi South 12.7 mph - 0.05 in   Overcast
9:16 AM 26.6 °F - 24.8 °F 93% 29.71 in 6.0 mi Calm Calm - 0.01 in   Overcast
9:36 AM 24.8 °F 16.9 °F 23.0 °F 93% 29.71 in 8.0 mi SE 6.9 mph - 0.01 in   Mostly Cloudy
9:56 AM 24.8 °F 15.3 °F 24.8 °F 100% 29.72 in 0.2 mi SSE 9.2 mph - 0.01 in   Overcast
10:16 AM 23.0 °F 13.1 °F 21.2 °F 93% 29.73 in 0.2 mi SSE 9.2 mph - 0.01 in   Overcast
10:36 AM 23.0 °F 13.9 °F 21.2 °F 93% 29.73 in 0.5 mi SE 8.1 mph - 0.01 in   Overcast
10:56 AM 24.8 °F 15.3 °F 24.8 °F 100% 29.73 in 2.0 mi SE 9.2 mph - 0.01 in   Overcast
11:16 AM 24.8 °F 14.6 °F 23.0 °F 93% 29.73 in 0.8 mi SE 10.4 mph - 0.01 in   Overcast
11:36 AM 24.8 °F 13.4 °F 24.8 °F 100% 29.74 in 0.2 mi SSE 12.7 mph - 0.01 in   Overcast
11:56 AM 26.6 °F 15.7 °F 24.8 °F 93% 29.73 in 0.5 mi SSE 12.7 mph - 0.01 in   Overcast
12:16 PM 26.6 °F 15.7 °F 26.6 °F 100% 29.74 in 0.2 mi SSE 12.7 mph - 0.01 in   Overcast
12:36 PM 26.6 °F 15.7 °F 26.6 °F 100% 29.74 in 0.8 mi SSE 12.7 mph - 0.01 in   Overcast
12:56 PM 26.6 °F 15.7 °F 26.6 °F 100% 29.75 in 0.2 mi SSE 12.7 mph - 0.02 in   Overcast
1:16 PM 26.6 °F 16.8 °F 26.6 °F 100% 29.76 in 0.2 mi SSE 10.4 mph - 0.05 in   Overcast
1:36 PM 26.6 °F 17.5 °F 26.6 °F 100% 29.76 in 0.2 mi SE 9.2 mph - 0.06 in   Overcast
1:56 PM 26.6 °F 18.2 °F 26.6 °F 100% 29.75 in 1.2 mi SE 8.1 mph - 0.06 in   Overcast
2:16 PM 26.6 °F 18.2 °F 26.6 °F 100% 29.76 in 9.0 mi SSE 8.1 mph - 0.01 in   Overcast
2:36 PM 26.6 °F 17.5 °F 26.6 °F 100% 29.77 in 10.0 mi SSE 9.2 mph - 0.01 in   Overcast
2:56 PM 26.6 °F 17.5 °F 24.8 °F 93% 29.76 in 10.0 mi SSE 9.2 mph - 0.02 in   Overcast
3:16 PM 26.6 °F 16.2 °F 26.6 °F 100% 29.76 in 10.0 mi SSE 11.5 mph - 0.02 in   Overcast
3:36 PM 26.6 °F 15.2 °F 26.6 °F 100% 29.76 in 10.0 mi SSE 13.8 mph - 0.03 in   Overcast
3:56 PM 26.6 °F 16.2 °F 26.6 °F 100% 29.75 in 10.0 mi SSE 11.5 mph - 0.05 in   Overcast
4:16 PM 26.6 °F 18.2 °F 26.6 °F 100% 29.75 in 10.0 mi SE 8.1 mph - 0.01 in   Overcast
4:36 PM 28.4 °F 19.7 °F 26.6 °F 93% 29.75 in 10.0 mi SSE 9.2 mph - 0.02 in   Overcast
4:56 PM 26.6 °F 17.5 °F 26.6 °F 100% 29.76 in 4.0 mi SSE 9.2 mph - 0.05 in   Overcast
5:16 PM 26.6 °F 19.1 °F 26.6 °F 100% 29.75 in 4.0 mi SSE 6.9 mph - 0.02 in   Overcast
5:36 PM 26.6 °F 20.0 °F 26.6 °F 100% 29.75 in 2.0 mi SSE 5.8 mph - 0.04 in   Overcast
5:56 PM 26.6 °F 20.0 °F 24.8 °F 93% 29.75 in 3.0 mi SSE 5.8 mph - 0.04 in   Overcast
6:16 PM 28.4 °F 23.3 °F 26.6 °F 93% 29.74 in 9.0 mi SE 4.6 mph - N/A   Overcast
6:36 PM 28.4 °F 23.3 °F 24.8 °F 86% 29.74 in 10.0 mi SE 4.6 mph - N/A   Overcast
6:56 PM 28.4 °F 24.6 °F 24.8 °F 86% 29.73 in 10.0 mi SE 3.5 mph - N/A   Overcast
7:16 PM 28.4 °F - 26.6 °F 93% 29.73 in 10.0 mi Calm Calm - N/A   Overcast
7:36 PM 28.4 °F 24.6 °F 24.8 °F 86% 29.73 in 10.0 mi ENE 3.5 mph - N/A   Overcast
7:56 PM 28.4 °F 22.2 °F 24.8 °F 86% 29.72 in 10.0 mi ESE 5.8 mph - N/A   Overcast
8:16 PM 26.6 °F 19.1 °F 23.0 °F 86% 29.72 in 10.0 mi ESE 6.9 mph - N/A   Overcast
8:36 PM 26.6 °F 17.5 °F 26.6 °F 100% 29.71 in 10.0 mi East 9.2 mph - N/A   Overcast
8:56 PM 26.6 °F 15.7 °F 24.8 °F 93% 29.71 in 10.0 mi East 12.7 mph - N/A   Overcast
9:16 PM 26.6 °F 16.2 °F 24.8 °F 93% 29.71 in 10.0 mi East 11.5 mph - N/A   Overcast
9:36 PM 26.6 °F 19.1 °F 24.8 °F 93% 29.70 in 10.0 mi ENE 6.9 mph - N/A   Overcast
9:56 PM 26.6 °F 17.5 °F 23.0 °F 86% 29.69 in 10.0 mi East 9.2 mph - N/A   Overcast
10:16 PM 26.6 °F 18.2 °F 23.0 °F 86% 29.68 in 10.0 mi East 8.1 mph - N/A   Overcast
10:36 PM 26.6 °F 16.2 °F 23.0 °F 86% 29.68 in 10.0 mi ENE 11.5 mph - N/A   Overcast
10:56 PM 26.6 °F 17.5 °F 23.0 °F 86% 29.67 in 10.0 mi ENE 9.2 mph - N/A   Overcast
11:16 PM 26.6 °F 16.2 °F 23.0 °F 86% 29.67 in 10.0 mi NE 11.5 mph - N/A   Overcast
11:36 PM 26.6 °F 18.2 °F 23.0 °F 86% 29.66 in 10.0 mi NNE 8.1 mph - N/A   Mostly Cloudy
11:56 PM 26.6 °F 14.7 °F 23.0 °F 86% 29.65 in 10.0 mi ENE 15.0 mph - N/A   Scattered Clouds